sensor_id;sensor_type;location;lat;lon;timestamp;pressure;altitude;pressure_sealevel;temperature;humidity
21730;BME280;11027;51.030;13.812;2023-11-19T00:00:09;100297.97;;;6.37;73.18
21730;BME280;11027;51.030;13.812;2023-11-19T00:02:38;100306.69;;;6.31;73.32
21730;BME280;11027;51.030;13.812;2023-11-19T00:05:03;100303.16;;;6.31;73.39
21730;BME280;11027;51.030;13.812;2023-11-19T00:07:29;100285.19;;;6.30;73.56
21730;BME280;11027;51.030;13.812;2023-11-19T00:09:54;100280.81;;;6.29;73.67
21730;BME280;11027;51.030;13.812;2023-11-19T00:12:20;100261.16;;;6.27;73.73
21730;BME280;11027;51.030;13.812;2023-11-19T00:14:45;100233.41;;;6.25;73.80
21730;BME280;11027;51.030;13.812;2023-11-19T00:17:10;100241.09;;;6.19;73.84
21730;BME280;11027;51.030;13.812;2023-11-19T00:19:36;100228.75;;;6.17;74.05
21730;BME280;11027;51.030;13.812;2023-11-19T00:22:01;100210.97;;;6.14;74.13
21730;BME280;11027;51.030;13.812;2023-11-19T00:24:28;100219.22;;;6.13;74.42
21730;BME280;11027;51.030;13.812;2023-11-19T00:26:53;100241.00;;;6.11;73.90
21730;BME280;11027;51.030;13.812;2023-11-19T00:29:19;100224.06;;;6.09;74.32
21730;BME280;11027;51.030;13.812;2023-11-19T00:31:45;100197.03;;;6.09;74.31
21730;BME280;11027;51.030;13.812;2023-11-19T00:34:10;100196.75;;;6.12;74.13
21730;BME280;11027;51.030;13.812;2023-11-19T00:36:36;100207.84;;;6.09;74.27
21730;BME280;11027;51.030;13.812;2023-11-19T00:39:01;100198.75;;;6.10;74.19
21730;BME280;11027;51.030;13.812;2023-11-19T00:41:26;100193.63;;;6.07;74.27
21730;BME280;11027;51.030;13.812;2023-11-19T00:43:51;100186.69;;;6.05;74.49
21730;BME280;11027;51.030;13.812;2023-11-19T00:46:17;100186.69;;;6.05;74.41
21730;BME280;11027;51.030;13.812;2023-11-19T00:48:42;100184.81;;;6.05;74.27
21730;BME280;11027;51.030;13.812;2023-11-19T00:51:08;100183.66;;;6.08;74.25
21730;BME280;11027;51.030;13.812;2023-11-19T00:53:33;100187.94;;;6.10;74.22
21730;BME280;11027;51.030;13.812;2023-11-19T00:55:59;100166.28;;;6.10;74.14
21730;BME280;11027;51.030;13.812;2023-11-19T00:58:24;100165.41;;;6.10;74.16
21730;BME280;11027;51.030;13.812;2023-11-19T01:00:49;100167.28;;;6.09;74.42
21730;BME280;11027;51.030;13.812;2023-11-19T01:03:15;100155.47;;;6.10;74.21
21730;BME280;11027;51.030;13.812;2023-11-19T01:05:43;100148.34;;;6.09;74.48
21730;BME280;11027;51.030;13.812;2023-11-19T01:08:09;100138.38;;;6.10;74.49
21730;BME280;11027;51.030;13.812;2023-11-19T01:10:37;100131.81;;;6.12;74.47
21730;BME280;11027;51.030;13.812;2023-11-19T01:13:02;100125.53;;;6.12;74.54
21730;BME280;11027;51.030;13.812;2023-11-19T01:15:31;100113.88;;;6.11;74.38
21730;BME280;11027;51.030;13.812;2023-11-19T01:17:56;100112.19;;;6.10;74.57
21730;BME280;11027;51.030;13.812;2023-11-19T01:20:21;100088.84;;;6.09;74.50
21730;BME280;11027;51.030;13.812;2023-11-19T01:22:47;100076.34;;;6.08;74.45
21730;BME280;11027;51.030;13.812;2023-11-19T01:25:13;100091.69;;;6.08;74.56
21730;BME280;11027;51.030;13.812;2023-11-19T01:27:39;100084.59;;;6.07;74.71
21730;BME280;11027;51.030;13.812;2023-11-19T01:30:04;100084.59;;;6.07;74.55
21730;BME280;11027;51.030;13.812;2023-11-19T01:32:30;100084.59;;;6.07;74.88
21730;BME280;11027;51.030;13.812;2023-11-19T01:34:56;100077.03;;;6.10;74.56
21730;BME280;11027;51.030;13.812;2023-11-19T01:37:21;100062.63;;;6.10;74.64
21730;BME280;11027;51.030;13.812;2023-11-19T01:39:46;100069.91;;;6.09;74.77
21730;BME280;11027;51.030;13.812;2023-11-19T01:42:11;100068.03;;;6.10;74.78
21730;BME280;11027;51.030;13.812;2023-11-19T01:44:37;100059.78;;;6.11;74.54
21730;BME280;11027;51.030;13.812;2023-11-19T01:47:03;100054.06;;;6.14;74.53
21730;BME280;11027;51.030;13.812;2023-11-19T01:49:30;100043.25;;;6.14;74.58
21730;BME280;11027;51.030;13.812;2023-11-19T01:51:57;100044.09;;;6.15;74.43
21730;BME280;11027;51.030;13.812;2023-11-19T01:54:23;100036.53;;;6.18;74.57
21730;BME280;11027;51.030;13.812;2023-11-19T01:56:48;100029.56;;;6.16;74.58
21730;BME280;11027;51.030;13.812;2023-11-19T01:59:14;100015.03;;;6.17;74.51
21730;BME280;11027;51.030;13.812;2023-11-19T02:01:41;100014.72;;;6.20;74.37
21730;BME280;11027;51.030;13.812;2023-11-19T02:04:07;100009.47;;;6.18;74.52
21730;BME280;11027;51.030;13.812;2023-11-19T02:06:34;99996.66;;;6.20;74.53
21730;BME280;11027;51.030;13.812;2023-11-19T02:09:00;99987.38;;;6.23;74.50
21730;BME280;11027;51.030;13.812;2023-11-19T02:11:26;99980.78;;;6.26;74.40
21730;BME280;11027;51.030;13.812;2023-11-19T02:13:55;99973.34;;;6.28;74.27
21730;BME280;11027;51.030;13.812;2023-11-19T02:16:21;99975.75;;;6.31;74.12
21730;BME280;11027;51.030;13.812;2023-11-19T02:18:46;99977.28;;;6.33;74.11
21730;BME280;11027;51.030;13.812;2023-11-19T02:21:11;99977.13;;;6.35;74.06
21730;BME280;11027;51.030;13.812;2023-11-19T02:23:37;99981.84;;;6.33;74.09
21730;BME280;11027;51.030;13.812;2023-11-19T02:26:09;99956.13;;;6.29;74.30
21730;BME280;11027;51.030;13.812;2023-11-19T02:28:39;99942.91;;;6.26;74.58
21730;BME280;11027;51.030;13.812;2023-11-19T02:31:05;99933.94;;;6.25;74.85
21730;BME280;11027;51.030;13.812;2023-11-19T02:33:31;99937.19;;;6.29;74.93
21730;BME280;11027;51.030;13.812;2023-11-19T02:35:56;99929.22;;;6.27;74.97
21730;BME280;11027;51.030;13.812;2023-11-19T02:38:22;99924.16;;;6.24;75.41
21730;BME280;11027;51.030;13.812;2023-11-19T02:40:47;99912.78;;;6.20;75.46
21730;BME280;11027;51.030;13.812;2023-11-19T02:43:14;99910.78;;;6.23;75.40
21730;BME280;11027;51.030;13.812;2023-11-19T02:45:39;99903.66;;;6.21;75.46
21730;BME280;11027;51.030;13.812;2023-11-19T02:48:05;99907.03;;;6.24;75.47
21730;BME280;11027;51.030;13.812;2023-11-19T02:50:31;99893.91;;;6.29;75.39
21730;BME280;11027;51.030;13.812;2023-11-19T02:52:57;99884.47;;;6.33;75.22
21730;BME280;11027;51.030;13.812;2023-11-19T02:55:23;99894.09;;;6.35;75.14
21730;BME280;11027;51.030;13.812;2023-11-19T02:57:49;99892.94;;;6.38;75.08
21730;BME280;11027;51.030;13.812;2023-11-19T03:00:19;99882.09;;;6.38;75.04
21730;BME280;11027;51.030;13.812;2023-11-19T03:02:48;99868.41;;;6.39;74.90
21730;BME280;11027;51.030;13.812;2023-11-19T03:05:24;99857.28;;;6.43;75.24
21730;BME280;11027;51.030;13.812;2023-11-19T03:07:49;99856.41;;;6.42;75.05
21730;BME280;11027;51.030;13.812;2023-11-19T03:10:15;99846.28;;;6.44;75.10
21730;BME280;11027;51.030;13.812;2023-11-19T03:12:41;99836.47;;;6.43;74.78
21730;BME280;11027;51.030;13.812;2023-11-19T03:15:07;99826.50;;;6.44;75.16
21730;BME280;11027;51.030;13.812;2023-11-19T03:17:36;99828.03;;;6.46;74.99
21730;BME280;11027;51.030;13.812;2023-11-19T03:20:01;99828.72;;;6.48;74.88
21730;BME280;11027;51.030;13.812;2023-11-19T03:22:26;99830.41;;;6.49;74.76
21730;BME280;11027;51.030;13.812;2023-11-19T03:24:52;99829.25;;;6.52;74.84
21730;BME280;11027;51.030;13.812;2023-11-19T03:27:17;99835.19;;;6.55;74.73
21730;BME280;11027;51.030;13.812;2023-11-19T03:29:42;99815.56;;;6.53;74.75
21730;BME280;11027;51.030;13.812;2023-11-19T03:32:08;99813.53;;;6.55;74.65
21730;BME280;11027;51.030;13.812;2023-11-19T03:34:33;99817.94;;;6.56;74.66
21730;BME280;11027;51.030;13.812;2023-11-19T03:36:59;99820.66;;;6.56;74.73
21730;BME280;11027;51.030;13.812;2023-11-19T03:39:24;99809.81;;;6.56;74.75
21730;BME280;11027;51.030;13.812;2023-11-19T03:41:50;99800.31;;;6.52;74.65
21730;BME280;11027;51.030;13.812;2023-11-19T03:44:15;99790.16;;;6.54;74.70
21730;BME280;11027;51.030;13.812;2023-11-19T03:46:41;99782.75;;;6.56;74.58
21730;BME280;11027;51.030;13.812;2023-11-19T03:49:07;99787.16;;;6.57;74.66
21730;BME280;11027;51.030;13.812;2023-11-19T03:51:32;99784.44;;;6.57;74.42
21730;BME280;11027;51.030;13.812;2023-11-19T03:53:57;99776.31;;;6.57;74.36
21730;BME280;11027;51.030;13.812;2023-11-19T03:56:23;99764.50;;;6.58;74.45
21730;BME280;11027;51.030;13.812;2023-11-19T03:58:48;99755.69;;;6.56;74.46
21730;BME280;11027;51.030;13.812;2023-11-19T04:01:13;99749.25;;;6.57;74.49
21730;BME280;11027;51.030;13.812;2023-11-19T04:03:39;99744.88;;;6.56;74.59
21730;BME280;11027;51.030;13.812;2023-11-19T04:06:05;99744.88;;;6.56;74.61
21730;BME280;11027;51.030;13.812;2023-11-19T04:08:30;99746.53;;;6.57;74.63
21730;BME280;11027;51.030;13.812;2023-11-19T04:10:55;99738.44;;;6.57;74.68
21730;BME280;11027;51.030;13.812;2023-11-19T04:13:21;99740.44;;;6.55;74.66
21730;BME280;11027;51.030;13.812;2023-11-19T04:15:46;99733.16;;;6.56;74.72
21730;BME280;11027;51.030;13.812;2023-11-19T04:18:11;99729.63;;;6.55;74.79
21730;BME280;11027;51.030;13.812;2023-11-19T04:20:36;99713.91;;;6.51;74.80
21730;BME280;11027;51.030;13.812;2023-11-19T04:23:02;99715.72;;;6.50;74.95
21730;BME280;11027;51.030;13.812;2023-11-19T04:25:27;99715.72;;;6.50;74.96
21730;BME280;11027;51.030;13.812;2023-11-19T04:27:52;99714.72;;;6.51;75.15
21730;BME280;11027;51.030;13.812;2023-11-19T04:30:18;99713.91;;;6.51;75.21
21730;BME280;11027;51.030;13.812;2023-11-19T04:32:44;99715.56;;;6.52;75.13
21730;BME280;11027;51.030;13.812;2023-11-19T04:35:09;99712.56;;;6.55;75.06
21730;BME280;11027;51.030;13.812;2023-11-19T04:37:35;99701.88;;;6.53;75.04
21730;BME280;11027;51.030;13.812;2023-11-19T04:40:00;99692.72;;;6.54;75.19
21730;BME280;11027;51.030;13.812;2023-11-19T04:42:25;99684.81;;;6.53;75.25
21730;BME280;11027;51.030;13.812;2023-11-19T04:44:50;99699.34;;;6.52;75.55
21730;BME280;11027;51.030;13.812;2023-11-19T04:47:16;99683.25;;;6.50;75.81
21730;BME280;11027;51.030;13.812;2023-11-19T04:49:41;99692.25;;;6.51;76.00
21730;BME280;11027;51.030;13.812;2023-11-19T04:52:09;99679.38;;;6.53;76.20
21730;BME280;11027;51.030;13.812;2023-11-19T04:54:34;99681.56;;;6.49;76.18
21730;BME280;11027;51.030;13.812;2023-11-19T04:57:00;99680.91;;;6.47;76.51
21730;BME280;11027;51.030;13.812;2023-11-19T04:59:25;99666.34;;;6.48;77.00
21730;BME280;11027;51.030;13.812;2023-11-19T05:01:50;99653.00;;;6.47;77.33
21730;BME280;11027;51.030;13.812;2023-11-19T05:04:15;99656.19;;;6.42;77.50
21730;BME280;11027;51.030;13.812;2023-11-19T05:06:41;99663.31;;;6.43;77.62
21730;BME280;11027;51.030;13.812;2023-11-19T05:09:06;99662.78;;;6.39;77.97
21730;BME280;11027;51.030;13.812;2023-11-19T05:11:35;99663.81;;;6.38;78.25
21730;BME280;11027;51.030;13.812;2023-11-19T05:14:04;99653.16;;;6.37;78.34
21730;BME280;11027;51.030;13.812;2023-11-19T05:16:30;99644.34;;;6.35;78.86
21730;BME280;11027;51.030;13.812;2023-11-19T05:18:55;99644.34;;;6.35;78.92
21730;BME280;11027;51.030;13.812;2023-11-19T05:21:20;99642.63;;;6.34;79.17
21730;BME280;11027;51.030;13.812;2023-11-19T05:23:46;99650.06;;;6.32;79.41
21730;BME280;11027;51.030;13.812;2023-11-19T05:26:18;99642.16;;;6.30;79.68
21730;BME280;11027;51.030;13.812;2023-11-19T05:28:43;99632.16;;;6.31;79.71
21730;BME280;11027;51.030;13.812;2023-11-19T05:31:08;99622.34;;;6.30;79.92
21730;BME280;11027;51.030;13.812;2023-11-19T05:33:34;99617.81;;;6.30;80.11
21730;BME280;11027;51.030;13.812;2023-11-19T05:35:59;99602.41;;;6.31;80.13
21730;BME280;11027;51.030;13.812;2023-11-19T05:38:24;99592.94;;;6.27;80.41
21730;BME280;11027;51.030;13.812;2023-11-19T05:40:49;99602.03;;;6.26;80.57
21730;BME280;11027;51.030;13.812;2023-11-19T05:43:15;99604.59;;;6.27;80.77
21730;BME280;11027;51.030;13.812;2023-11-19T05:45:41;99609.63;;;6.22;80.80
21730;BME280;11027;51.030;13.812;2023-11-19T05:48:07;99594.06;;;6.16;81.07
21730;BME280;11027;51.030;13.812;2023-11-19T05:50:33;99585.50;;;6.20;81.21
21730;BME280;11027;51.030;13.812;2023-11-19T05:52:59;99584.97;;;6.25;81.01
21730;BME280;11027;51.030;13.812;2023-11-19T05:55:24;99591.56;;;6.23;81.31
21730;BME280;11027;51.030;13.812;2023-11-19T05:57:49;99589.56;;;6.25;81.26
21730;BME280;11027;51.030;13.812;2023-11-19T06:00:17;99581.28;;;6.26;81.40
21730;BME280;11027;51.030;13.812;2023-11-19T06:02:43;99579.03;;;6.21;81.51
21730;BME280;11027;51.030;13.812;2023-11-19T06:05:08;99581.06;;;6.19;81.68
21730;BME280;11027;51.030;13.812;2023-11-19T06:07:35;99580.25;;;6.19;81.97
21730;BME280;11027;51.030;13.812;2023-11-19T06:10:01;99581.59;;;6.23;81.81
21730;BME280;11027;51.030;13.812;2023-11-19T06:12:28;99561.97;;;6.21;81.91
21730;BME280;11027;51.030;13.812;2023-11-19T06:14:53;99563.84;;;6.20;81.69
21730;BME280;11027;51.030;13.812;2023-11-19T06:17:18;99561.66;;;6.24;82.15
21730;BME280;11027;51.030;13.812;2023-11-19T06:19:43;99552.53;;;6.25;82.16
21730;BME280;11027;51.030;13.812;2023-11-19T06:22:10;99546.28;;;6.25;82.32
21730;BME280;11027;51.030;13.812;2023-11-19T06:24:36;99538.31;;;6.23;81.98
21730;BME280;11027;51.030;13.812;2023-11-19T06:27:01;99538.00;;;6.26;82.17
21730;BME280;11027;51.030;13.812;2023-11-19T06:29:26;99514.66;;;6.25;82.23
21730;BME280;11027;51.030;13.812;2023-11-19T06:31:52;99524.28;;;6.28;82.27
21730;BME280;11027;51.030;13.812;2023-11-19T06:34:17;99499.78;;;6.29;82.28
21730;BME280;11027;51.030;13.812;2023-11-19T06:36:43;99511.63;;;6.28;82.39
21730;BME280;11027;51.030;13.812;2023-11-19T06:39:11;99515.16;;;6.29;82.69
21730;BME280;11027;51.030;13.812;2023-11-19T06:41:36;99511.44;;;6.30;82.73
21730;BME280;11027;51.030;13.812;2023-11-19T06:44:04;99520.91;;;6.34;82.65
21730;BME280;11027;51.030;13.812;2023-11-19T06:46:30;99516.84;;;6.38;82.64
21730;BME280;11027;51.030;13.812;2023-11-19T06:48:56;99508.41;;;6.41;82.83
21730;BME280;11027;51.030;13.812;2023-11-19T06:51:21;99515.47;;;6.42;83.01
21730;BME280;11027;51.030;13.812;2023-11-19T06:53:47;99512.78;;;6.42;83.07
21730;BME280;11027;51.030;13.812;2023-11-19T06:56:22;99511.41;;;6.46;83.16
21730;BME280;11027;51.030;13.812;2023-11-19T06:58:48;99521.91;;;6.49;83.19
21730;BME280;11027;51.030;13.812;2023-11-19T07:01:15;99528.69;;;6.53;83.15
21730;BME280;11027;51.030;13.812;2023-11-19T07:03:40;99509.06;;;6.51;83.19
21730;BME280;11027;51.030;13.812;2023-11-19T07:06:05;99506.19;;;6.53;83.31
21730;BME280;11027;51.030;13.812;2023-11-19T07:08:31;99503.28;;;6.54;83.28
21730;BME280;11027;51.030;13.812;2023-11-19T07:10:56;99508.06;;;6.60;83.32
21730;BME280;11027;51.030;13.812;2023-11-19T07:13:21;99516.47;;;6.66;83.20
21730;BME280;11027;51.030;13.812;2023-11-19T07:15:47;99502.94;;;6.66;83.30
21730;BME280;11027;51.030;13.812;2023-11-19T07:18:12;99536.47;;;6.65;83.21
21730;BME280;11027;51.030;13.812;2023-11-19T07:20:37;99527.31;;;6.66;83.53
21730;BME280;11027;51.030;13.812;2023-11-19T07:23:04;99528.34;;;6.65;83.58
21730;BME280;11027;51.030;13.812;2023-11-19T07:25:29;99532.41;;;6.69;83.81
21730;BME280;11027;51.030;13.812;2023-11-19T07:27:54;99530.38;;;6.71;83.75
21730;BME280;11027;51.030;13.812;2023-11-19T07:30:20;99535.59;;;6.72;83.83
21730;BME280;11027;51.030;13.812;2023-11-19T07:32:45;99550.00;;;6.73;84.08
21730;BME280;11027;51.030;13.812;2023-11-19T07:35:10;99535.09;;;6.77;83.93
21730;BME280;11027;51.030;13.812;2023-11-19T07:37:36;99543.03;;;6.78;84.13
21730;BME280;11027;51.030;13.812;2023-11-19T07:40:02;99535.75;;;6.79;84.09
21730;BME280;11027;51.030;13.812;2023-11-19T07:42:28;99524.56;;;6.82;84.28
21730;BME280;11027;51.030;13.812;2023-11-19T07:44:54;99521.53;;;6.85;84.32
21730;BME280;11027;51.030;13.812;2023-11-19T07:47:21;99529.13;;;6.90;84.52
21730;BME280;11027;51.030;13.812;2023-11-19T07:49:48;99535.91;;;6.94;84.34
21730;BME280;11027;51.030;13.812;2023-11-19T07:52:13;99530.66;;;6.92;84.45
21730;BME280;11027;51.030;13.812;2023-11-19T07:54:39;99535.06;;;6.93;84.53
21730;BME280;11027;51.030;13.812;2023-11-19T07:57:04;99520.47;;;7.03;84.73
21730;BME280;11027;51.030;13.812;2023-11-19T07:59:29;99525.84;;;7.11;84.65
21730;BME280;11027;51.030;13.812;2023-11-19T08:01:54;99536.03;;;7.09;84.57
21730;BME280;11027;51.030;13.812;2023-11-19T08:04:20;99521.81;;;7.07;84.77
21730;BME280;11027;51.030;13.812;2023-11-19T08:06:45;99541.13;;;7.04;84.72
21730;BME280;11027;51.030;13.812;2023-11-19T08:09:11;99548.22;;;7.05;84.99
21730;BME280;11027;51.030;13.812;2023-11-19T08:11:39;99540.75;;;7.07;85.24
21730;BME280;11027;51.030;13.812;2023-11-19T08:14:05;99546.19;;;7.07;85.32
21730;BME280;11027;51.030;13.812;2023-11-19T08:16:30;99540.75;;;7.07;85.56
21730;BME280;11027;51.030;13.812;2023-11-19T08:18:55;99530.44;;;7.10;85.86
21730;BME280;11027;51.030;13.812;2023-11-19T08:21:23;99522.44;;;7.17;86.10
21730;BME280;11027;51.030;13.812;2023-11-19T08:23:48;99518.06;;;7.16;86.04
21730;BME280;11027;51.030;13.812;2023-11-19T08:26:14;99517.69;;;7.19;86.40
21730;BME280;11027;51.030;13.812;2023-11-19T08:28:40;99514.78;;;7.29;86.38
21730;BME280;11027;51.030;13.812;2023-11-19T08:31:05;99515.97;;;7.34;86.09
21730;BME280;11027;51.030;13.812;2023-11-19T08:33:31;99510.53;;;7.34;86.00
21730;BME280;11027;51.030;13.812;2023-11-19T08:35:56;99507.28;;;7.39;86.14
21730;BME280;11027;51.030;13.812;2023-11-19T08:38:23;99507.47;;;7.46;86.49
21730;BME280;11027;51.030;13.812;2023-11-19T08:40:48;99510.13;;;7.54;86.32
21730;BME280;11027;51.030;13.812;2023-11-19T08:43:14;99505.31;;;7.64;86.49
21730;BME280;11027;51.030;13.812;2023-11-19T08:45:39;99503.41;;;7.73;86.46
21730;BME280;11027;51.030;13.812;2023-11-19T08:48:05;99513.66;;;7.86;86.44
21730;BME280;11027;51.030;13.812;2023-11-19T08:50:30;99521.41;;;7.97;86.43
21730;BME280;11027;51.030;13.812;2023-11-19T08:52:55;99499.34;;;8.00;86.37
21730;BME280;11027;51.030;13.812;2023-11-19T08:55:21;99502.34;;;8.05;86.48
21730;BME280;11027;51.030;13.812;2023-11-19T08:57:46;99522.97;;;8.14;86.58
21730;BME280;11027;51.030;13.812;2023-11-19T09:00:12;99515.50;;;8.16;86.60
21730;BME280;11027;51.030;13.812;2023-11-19T09:02:39;99534.28;;;8.18;86.52
21730;BME280;11027;51.030;13.812;2023-11-19T09:05:05;99534.13;;;8.19;86.61
21730;BME280;11027;51.030;13.812;2023-11-19T09:07:32;99534.78;;;8.21;86.74
21730;BME280;11027;51.030;13.812;2023-11-19T09:09:58;99544.63;;;8.23;86.94
21730;BME280;11027;51.030;13.812;2023-11-19T09:12:23;99548.34;;;8.21;87.55
21730;BME280;11027;51.030;13.812;2023-11-19T09:14:48;99541.91;;;8.23;87.64
21730;BME280;11027;51.030;13.812;2023-11-19T09:17:14;99534.78;;;8.21;87.90
21730;BME280;11027;51.030;13.812;2023-11-19T09:19:39;99537.31;;;8.23;87.86
21730;BME280;11027;51.030;13.812;2023-11-19T09:22:05;99536.09;;;8.26;88.19
21730;BME280;11027;51.030;13.812;2023-11-19T09:24:30;99517.78;;;8.28;88.38
21730;BME280;11027;51.030;13.812;2023-11-19T09:26:55;99514.06;;;8.29;89.31
21730;BME280;11027;51.030;13.812;2023-11-19T09:29:21;99517.72;;;8.36;90.20
21730;BME280;11027;51.030;13.812;2023-11-19T09:31:46;99527.34;;;8.47;91.71
21730;BME280;11027;51.030;13.812;2023-11-19T09:34:12;99529.97;;;8.55;92.18
21730;BME280;11027;51.030;13.812;2023-11-19T09:36:37;99535.03;;;8.58;92.17
21730;BME280;11027;51.030;13.812;2023-11-19T09:39:02;99540.13;;;8.61;91.66
21730;BME280;11027;51.030;13.812;2023-11-19T09:41:30;99536.00;;;8.65;91.59
21730;BME280;11027;51.030;13.812;2023-11-19T09:43:56;99525.63;;;8.69;91.51
21730;BME280;11027;51.030;13.812;2023-11-19T09:46:21;99532.38;;;8.73;91.67
21730;BME280;11027;51.030;13.812;2023-11-19T09:48:52;99540.78;;;8.78;91.70
21730;BME280;11027;51.030;13.812;2023-11-19T09:51:19;99539.22;;;8.84;91.43
21730;BME280;11027;51.030;13.812;2023-11-19T09:53:45;99539.31;;;8.90;91.57
21730;BME280;11027;51.030;13.812;2023-11-19T09:56:10;99531.47;;;8.95;91.47
21730;BME280;11027;51.030;13.812;2023-11-19T09:58:36;99524.91;;;9.05;91.18
21730;BME280;11027;51.030;13.812;2023-11-19T10:01:02;99514.97;;;9.12;91.40
21730;BME280;11027;51.030;13.812;2023-11-19T10:03:37;99512.09;;;9.13;91.35
21730;BME280;11027;51.030;13.812;2023-11-19T10:06:09;99523.13;;;9.12;91.11
21730;BME280;11027;51.030;13.812;2023-11-19T10:08:37;99509.56;;;9.12;91.23
21730;BME280;11027;51.030;13.812;2023-11-19T10:11:02;99517.03;;;9.10;91.27
21730;BME280;11027;51.030;13.812;2023-11-19T10:13:28;99512.94;;;9.14;91.77
21730;BME280;11027;51.030;13.812;2023-11-19T10:15:55;99514.97;;;9.12;91.34
21730;BME280;11027;51.030;13.812;2023-11-19T10:18:25;99516.22;;;9.09;91.35
21730;BME280;11027;51.030;13.812;2023-11-19T10:20:51;99508.50;;;9.13;91.77
21730;BME280;11027;51.030;13.812;2023-11-19T10:23:16;99504.84;;;9.20;92.31
21730;BME280;11027;51.030;13.812;2023-11-19T10:25:41;99509.00;;;9.31;92.93
21730;BME280;11027;51.030;13.812;2023-11-19T10:28:06;99512.53;;;9.47;93.12
21730;BME280;11027;51.030;13.812;2023-11-19T10:30:32;99503.50;;;9.61;93.94
21730;BME280;11027;51.030;13.812;2023-11-19T10:33:10;99507.56;;;9.87;95.34
21730;BME280;11027;51.030;13.812;2023-11-19T10:35:56;99500.34;;;10.15;95.32
21730;BME280;11027;51.030;13.812;2023-11-19T10:38:23;99488.00;;;10.34;94.72
21730;BME280;11027;51.030;13.812;2023-11-19T10:40:50;99501.16;;;10.52;93.51
21730;BME280;11027;51.030;13.812;2023-11-19T10:43:19;99499.56;;;10.65;92.02
21730;BME280;11027;51.030;13.812;2023-11-19T10:45:44;99488.75;;;10.78;91.17
21730;BME280;11027;51.030;13.812;2023-11-19T10:48:10;99491.97;;;10.88;90.02
21730;BME280;11027;51.030;13.812;2023-11-19T10:50:38;99484.69;;;10.95;89.27
21730;BME280;11027;51.030;13.812;2023-11-19T10:53:05;99461.66;;;11.05;89.25
21730;BME280;11027;51.030;13.812;2023-11-19T10:55:32;99471.38;;;11.14;88.41
21730;BME280;11027;51.030;13.812;2023-11-19T10:58:00;99470.56;;;11.20;87.86
21730;BME280;11027;51.030;13.812;2023-11-19T11:00:26;99481.09;;;11.23;87.66
21730;BME280;11027;51.030;13.812;2023-11-19T11:02:56;99486.16;;;11.33;87.09
21730;BME280;11027;51.030;13.812;2023-11-19T11:05:26;99489.13;;;11.38;86.39
21730;BME280;11027;51.030;13.812;2023-11-19T11:07:52;99490.59;;;11.40;86.18
21730;BME280;11027;51.030;13.812;2023-11-19T11:10:24;99481.38;;;11.41;86.20
21730;BME280;11027;51.030;13.812;2023-11-19T11:12:52;99473.84;;;11.44;85.89
21730;BME280;11027;51.030;13.812;2023-11-19T11:15:25;99477.78;;;11.41;85.91
21730;BME280;11027;51.030;13.812;2023-11-19T11:17:55;99484.13;;;11.41;85.75
21730;BME280;11027;51.030;13.812;2023-11-19T11:20:22;99485.78;;;11.43;85.70
21730;BME280;11027;51.030;13.812;2023-11-19T11:23:07;99474.88;;;11.43;85.52
21730;BME280;11027;51.030;13.812;2023-11-19T11:26:29;99484.13;;;11.48;85.62
21730;BME280;11027;51.030;13.812;2023-11-19T11:28:30;99480.16;;;11.51;85.47
21730;BME280;11027;51.030;13.812;2023-11-19T11:31:22;99492.97;;;11.57;85.00
21730;BME280;11027;51.030;13.812;2023-11-19T11:36:59;99484.16;;;11.55;84.20
21730;BME280;11027;51.030;13.812;2023-11-19T11:39:29;99493.38;;;11.54;83.73
21730;BME280;11027;51.030;13.812;2023-11-19T11:45:02;99494.66;;;11.58;83.21
21730;BME280;11027;51.030;13.812;2023-11-19T11:50:20;99483.94;;;11.56;82.50
21730;BME280;11027;51.030;13.812;2023-11-19T11:58:21;99499.50;;;11.56;81.43
21730;BME280;11027;51.030;13.812;2023-11-19T12:00:51;99469.28;;;11.64;81.37
21730;BME280;11027;51.030;13.812;2023-11-19T12:03:20;99462.84;;;11.78;81.12
21730;BME280;11027;51.030;13.812;2023-11-19T12:05:47;99475.50;;;11.93;80.50
21730;BME280;11027;51.030;13.812;2023-11-19T12:08:14;99480.38;;;12.17;79.56
21730;BME280;11027;51.030;13.812;2023-11-19T12:13:12;99472.22;;;12.71;76.43
21730;BME280;11027;51.030;13.812;2023-11-19T12:18:26;99475.75;;;12.78;74.17
21730;BME280;11027;51.030;13.812;2023-11-19T12:20:52;99459.81;;;12.75;73.80
21730;BME280;11027;51.030;13.812;2023-11-19T12:23:17;99452.00;;;12.72;73.99
21730;BME280;11027;51.030;13.812;2023-11-19T12:25:42;99446.53;;;12.72;74.45
21730;BME280;11027;51.030;13.812;2023-11-19T12:28:16;99451.38;;;12.70;73.03
21730;BME280;11027;51.030;13.812;2023-11-19T12:30:42;99435.84;;;12.77;72.70
21730;BME280;11027;51.030;13.812;2023-11-19T12:33:09;99439.78;;;13.01;72.57
21730;BME280;11027;51.030;13.812;2023-11-19T12:35:45;99428.13;;;13.32;72.01
21730;BME280;11027;51.030;13.812;2023-11-19T12:38:25;99441.31;;;13.55;70.13
21730;BME280;11027;51.030;13.812;2023-11-19T12:41:11;99435.69;;;13.75;69.63
21730;BME280;11027;51.030;13.812;2023-11-19T12:43:37;99428.03;;;13.91;69.17
21730;BME280;11027;51.030;13.812;2023-11-19T12:46:23;99429.72;;;13.92;67.47
21730;BME280;11027;51.030;13.812;2023-11-19T12:48:49;99437.31;;;13.90;67.13
21730;BME280;11027;51.030;13.812;2023-11-19T12:51:15;99427.41;;;13.89;67.24
21730;BME280;11027;51.030;13.812;2023-11-19T12:53:51;99416.47;;;13.89;67.15
21730;BME280;11027;51.030;13.812;2023-11-19T12:56:21;99419.13;;;14.02;66.79
21730;BME280;11027;51.030;13.812;2023-11-19T12:58:47;99412.91;;;14.13;66.22
21730;BME280;11027;51.030;13.812;2023-11-19T13:01:16;99414.66;;;14.33;65.66
21730;BME280;11027;51.030;13.812;2023-11-19T13:03:41;99411.75;;;14.28;65.08
21730;BME280;11027;51.030;13.812;2023-11-19T13:06:09;99400.44;;;14.17;65.40
21730;BME280;11027;51.030;13.812;2023-11-19T13:08:38;99409.84;;;14.03;65.35
21730;BME280;11027;51.030;13.812;2023-11-19T13:11:04;99405.69;;;13.94;66.02
21730;BME280;11027;51.030;13.812;2023-11-19T13:13:31;99409.13;;;13.83;66.16